createdAt,value
2018-08-14T00:00:21.607Z,9.60
2018-08-14T00:01:21.560Z,9.80
2018-08-14T00:02:21.518Z,9.20
2018-08-14T00:03:21.470Z,11.00
2018-08-14T00:04:21.450Z,11.30
2018-08-14T00:05:21.376Z,11.10
2018-08-14T00:06:21.328Z,10.70
2018-08-14T00:07:21.302Z,10.20
2018-08-14T00:08:21.232Z,10.80
2018-08-14T00:09:21.208Z,10.70
2018-08-14T00:10:21.138Z,10.50
2018-08-14T00:11:21.092Z,11.20
2018-08-14T00:12:21.045Z,10.20
2018-08-14T00:13:20.998Z,11.40
2018-08-14T00:14:20.978Z,10.20
2018-08-14T00:15:20.904Z,10.20
2018-08-14T00:16:20.856Z,11.50
2018-08-14T00:17:20.810Z,9.70
2018-08-14T00:18:20.770Z,10.50
2018-08-14T00:19:20.740Z,10.10
2018-08-14T00:20:20.670Z,11.50
2018-08-14T00:21:20.621Z,10.20
2018-08-14T00:22:20.579Z,9.30
2018-08-14T00:23:20.526Z,10.40
2018-08-14T00:24:20.509Z,10.30
2018-08-14T00:25:20.436Z,10.50
2018-08-14T00:26:20.388Z,10.10
2018-08-14T00:27:20.340Z,11.70
2018-08-14T00:28:20.294Z,12.20
2018-08-14T00:29:20.267Z,12.40
2018-08-14T00:30:20.198Z,11.50
2018-08-14T00:31:20.153Z,10.10
2018-08-14T00:32:20.104Z,10.20
2018-08-14T00:33:20.059Z,12.60
2018-08-14T00:34:20.032Z,11.10
2018-08-14T00:35:19.961Z,11.50
2018-08-14T00:36:19.917Z,9.80
2018-08-14T00:37:19.869Z,10.80
2018-08-14T00:38:19.821Z,11.10
2018-08-14T00:39:19.795Z,10.30
2018-08-14T00:40:19.727Z,9.60
2018-08-14T00:41:19.680Z,10.10
2018-08-14T00:42:19.632Z,9.60
2018-08-14T00:43:19.586Z,10.90
2018-08-14T00:44:19.562Z,10.80
2018-08-14T00:45:19.491Z,8.70
2018-08-14T00:46:19.446Z,9.00
2018-08-14T00:47:19.397Z,8.80
2018-08-14T00:48:19.354Z,10.60
2018-08-14T00:49:19.328Z,9.90
2018-08-14T00:50:19.255Z,10.20
2018-08-14T00:51:19.207Z,9.90
2018-08-14T00:52:19.163Z,10.20
2018-08-14T00:53:19.113Z,9.90
2018-08-14T00:54:19.094Z,9.60
2018-08-14T00:55:19.045Z,11.40
2018-08-14T00:56:18.975Z,11.30
2018-08-14T00:57:18.923Z,9.90
2018-08-14T00:58:18.877Z,10.20
2018-08-14T00:59:18.828Z,11.40
2018-08-14T01:00:18.811Z,10.80
2018-08-14T01:01:18.736Z,9.00
2018-08-14T01:02:18.723Z,11.30
2018-08-14T01:03:18.641Z,9.10
2018-08-14T01:04:18.595Z,11.60
2018-08-14T01:05:18.571Z,8.50
2018-08-14T01:06:18.499Z,10.40
2018-08-14T01:07:18.455Z,10.60
2018-08-14T01:08:18.405Z,9.90
2018-08-14T01:09:18.361Z,9.60
2018-08-14T01:10:18.337Z,9.40
2018-08-14T01:11:18.267Z,11.90
2018-08-14T01:12:18.218Z,8.40
2018-08-14T01:13:18.172Z,11.10
2018-08-14T01:14:18.127Z,9.80
2018-08-14T01:15:18.098Z,8.60
2018-08-14T01:16:18.031Z,9.40
2018-08-14T01:17:17.985Z,10.10
2018-08-14T01:18:17.933Z,8.60
2018-08-14T01:19:17.888Z,9.40
2018-08-14T01:20:17.869Z,10.70
2018-08-14T01:21:17.796Z,9.00
2018-08-14T01:22:17.757Z,11.70
2018-08-14T01:23:17.703Z,10.30
2018-08-14T01:24:17.653Z,10.30
2018-08-14T01:25:17.626Z,10.70
2018-08-14T01:26:17.555Z,10.40
2018-08-14T01:27:17.508Z,10.90
2018-08-14T01:28:17.466Z,11.50
2018-08-14T01:29:17.417Z,10.30
2018-08-14T01:30:17.395Z,9.30
2018-08-14T01:31:17.323Z,9.20
2018-08-14T01:32:17.275Z,11.00
2018-08-14T01:33:17.231Z,9.90
2018-08-14T01:34:17.178Z,9.40
2018-08-14T01:35:17.159Z,9.90
2018-08-14T01:36:17.088Z,11.00
2018-08-14T01:37:17.040Z,9.00
2018-08-14T01:38:16.993Z,9.70
2018-08-14T01:39:16.946Z,9.30
2018-08-14T01:40:16.923Z,10.30
2018-08-14T01:41:16.850Z,10.90
2018-08-14T01:42:16.803Z,10.10
2018-08-14T01:43:16.761Z,8.90
2018-08-14T01:44:16.710Z,9.00
2018-08-14T01:45:16.684Z,9.00
2018-08-14T01:46:16.614Z,11.40
2018-08-14T01:47:16.616Z,10.00
2018-08-14T01:48:16.539Z,10.80
2018-08-14T01:49:16.472Z,9.70
2018-08-14T01:50:16.460Z,10.40
2018-08-14T01:51:16.379Z,10.60
2018-08-14T01:52:16.334Z,10.20
2018-08-14T01:53:16.284Z,9.10
2018-08-14T01:54:16.239Z,10.50
2018-08-14T01:55:16.216Z,9.50
2018-08-14T01:56:16.145Z,11.30
2018-08-14T01:57:16.099Z,9.20
2018-08-14T01:58:16.055Z,9.10
2018-08-14T01:59:16.000Z,11.50
2018-08-14T02:00:15.987Z,9.40
2018-08-14T02:01:15.909Z,9.30
2018-08-14T02:02:15.860Z,10.20
2018-08-14T02:03:15.813Z,10.20
2018-08-14T02:04:15.768Z,11.60
2018-08-14T02:05:15.743Z,11.80
2018-08-14T02:06:15.670Z,9.80
2018-08-14T02:07:15.624Z,9.60
2018-08-14T02:08:15.582Z,9.60
2018-08-14T02:09:15.532Z,9.70
2018-08-14T02:10:15.503Z,9.80
2018-08-14T02:11:15.435Z,10.40
2018-08-14T02:12:15.391Z,9.70
2018-08-14T02:13:15.341Z,10.00
2018-08-14T02:14:15.295Z,10.30
2018-08-14T02:15:15.266Z,9.90
2018-08-14T02:16:15.200Z,10.50
2018-08-14T02:17:15.154Z,9.30
2018-08-14T02:18:15.103Z,9.90
2018-08-14T02:19:15.072Z,10.90
2018-08-14T02:20:15.049Z,12.30
2018-08-14T02:21:14.966Z,10.30
2018-08-14T02:22:14.918Z,10.20
2018-08-14T02:23:14.866Z,11.40
2018-08-14T02:24:14.822Z,10.80
2018-08-14T02:25:14.776Z,10.10
2018-08-14T02:26:14.753Z,10.00
2018-08-14T02:27:14.677Z,10.30
2018-08-14T02:28:14.635Z,11.30
2018-08-14T02:29:14.588Z,10.50
2018-08-14T02:30:14.539Z,11.00
2018-08-14T02:31:14.515Z,11.00
2018-08-14T02:32:14.450Z,11.80
2018-08-14T02:33:14.396Z,10.50
2018-08-14T02:34:14.361Z,11.10
2018-08-14T02:35:14.304Z,11.80
2018-08-14T02:36:14.279Z,12.70
2018-08-14T02:37:14.210Z,8.70
2018-08-14T02:38:14.164Z,9.40
2018-08-14T02:39:14.113Z,10.80
2018-08-14T02:40:14.066Z,11.90
2018-08-14T02:41:14.046Z,11.30
2018-08-14T02:42:13.975Z,11.80
2018-08-14T02:43:13.925Z,11.90
2018-08-14T02:44:13.876Z,12.10
2018-08-14T02:45:13.832Z,11.40
2018-08-14T02:46:13.810Z,12.90
2018-08-14T02:47:13.736Z,11.20
2018-08-14T02:48:13.690Z,13.40
2018-08-14T02:49:13.641Z,12.20
2018-08-14T02:50:13.603Z,11.40
2018-08-14T02:51:13.572Z,10.40
2018-08-14T02:52:13.498Z,10.30
2018-08-14T02:53:13.452Z,10.90
2018-08-14T02:54:13.407Z,10.00
2018-08-14T02:55:13.365Z,11.90
2018-08-14T02:56:13.333Z,12.00
2018-08-14T02:57:13.264Z,14.30
2018-08-14T02:58:13.218Z,12.60
2018-08-14T02:59:13.169Z,12.60
2018-08-14T03:00:13.124Z,13.60
2018-08-14T03:01:13.103Z,15.10
2018-08-14T03:02:13.028Z,11.60
2018-08-14T03:03:12.983Z,11.90
2018-08-14T03:04:12.936Z,12.10
2018-08-14T03:05:12.885Z,12.80
2018-08-14T03:06:12.859Z,12.50
2018-08-14T03:07:12.799Z,14.60
2018-08-14T03:08:12.746Z,11.50
2018-08-14T03:09:12.695Z,12.40
2018-08-14T03:10:12.650Z,12.90
2018-08-14T03:11:12.625Z,14.20
2018-08-14T03:12:12.558Z,12.90
2018-08-14T03:13:12.507Z,13.20
2018-08-14T03:14:12.464Z,14.10
2018-08-14T03:15:12.410Z,15.80
2018-08-14T03:16:12.392Z,14.10
2018-08-14T03:17:12.320Z,14.60
2018-08-14T03:18:12.274Z,14.20
2018-08-14T03:19:12.223Z,14.30
2018-08-14T03:20:12.185Z,12.10
2018-08-14T03:21:12.154Z,14.30
2018-08-14T03:22:12.083Z,17.20
2018-08-14T03:23:12.034Z,14.30
2018-08-14T03:24:11.986Z,15.10
2018-08-14T03:25:11.941Z,13.90
2018-08-14T03:26:11.921Z,13.80
2018-08-14T03:27:11.849Z,17.90
2018-08-14T03:28:11.804Z,16.10
2018-08-14T03:29:11.751Z,14.90
2018-08-14T03:30:11.703Z,16.90
2018-08-14T03:31:11.682Z,16.60
2018-08-14T03:32:11.612Z,14.70
2018-08-14T03:33:11.566Z,14.00
2018-08-14T03:34:11.512Z,15.50
2018-08-14T03:35:11.462Z,19.10
2018-08-14T03:36:11.440Z,16.80
2018-08-14T03:37:11.373Z,14.40
2018-08-14T03:38:11.327Z,16.70
2018-08-14T03:39:11.278Z,16.80
2018-08-14T03:40:11.230Z,16.10
2018-08-14T03:41:11.222Z,17.40
2018-08-14T03:42:11.137Z,15.80
2018-08-14T03:43:11.088Z,18.50
2018-08-14T03:44:11.038Z,16.80
2018-08-14T03:45:10.991Z,18.50
2018-08-14T03:46:10.949Z,18.40
2018-08-14T03:47:10.923Z,17.00
2018-08-14T03:48:10.852Z,17.40
2018-08-14T03:49:10.809Z,17.40
2018-08-14T03:50:10.757Z,20.40
2018-08-14T03:51:10.711Z,19.30
2018-08-14T03:52:10.689Z,21.70
2018-08-14T03:53:10.617Z,19.60
2018-08-14T03:54:10.577Z,20.00
2018-08-14T03:55:10.521Z,21.30
2018-08-14T03:56:10.475Z,22.70
2018-08-14T03:57:10.450Z,20.50
2018-08-14T03:58:10.383Z,22.80
2018-08-14T03:59:10.336Z,19.40
2018-08-14T04:00:10.285Z,24.20
2018-08-14T04:01:10.237Z,26.30
2018-08-14T04:02:10.214Z,23.60
2018-08-14T04:03:10.143Z,23.30
2018-08-14T04:04:10.096Z,23.00
2018-08-14T04:05:10.052Z,23.20
2018-08-14T04:06:10.140Z,24.90
2018-08-14T04:07:09.975Z,25.80
2018-08-14T04:08:09.906Z,22.30
2018-08-14T04:09:09.863Z,25.30
2018-08-14T04:10:09.816Z,24.50
2018-08-14T04:11:09.764Z,26.60
2018-08-14T04:12:09.747Z,25.20
2018-08-14T04:13:09.680Z,24.60
2018-08-14T04:14:09.625Z,23.00
2018-08-14T04:15:09.578Z,26.00
2018-08-14T04:16:09.528Z,27.10
2018-08-14T04:17:09.514Z,26.20
2018-08-14T04:18:09.431Z,27.70
2018-08-14T04:19:09.385Z,26.70
2018-08-14T04:20:09.342Z,24.70
2018-08-14T04:21:09.296Z,26.50
2018-08-14T04:22:09.271Z,25.60
2018-08-14T04:23:09.205Z,24.20
2018-08-14T04:24:09.154Z,26.40
2018-08-14T04:25:09.102Z,28.50
2018-08-14T04:26:09.059Z,29.20
2018-08-14T04:27:09.040Z,26.10
2018-08-14T04:28:08.964Z,25.30
2018-08-14T04:29:08.921Z,30.20
2018-08-14T04:30:08.866Z,28.00
2018-08-14T04:31:08.820Z,30.70
2018-08-14T04:32:08.800Z,28.50
2018-08-14T04:33:08.727Z,27.80
2018-08-14T04:34:08.684Z,28.30
2018-08-14T04:35:08.630Z,29.50
2018-08-14T04:36:08.591Z,27.70
2018-08-14T04:37:08.566Z,27.40
2018-08-14T04:38:08.501Z,29.60
2018-08-14T04:39:08.445Z,29.40
2018-08-14T04:40:08.399Z,30.10
2018-08-14T04:41:08.355Z,26.00
2018-08-14T04:42:08.328Z,27.20
2018-08-14T04:43:08.260Z,27.20
2018-08-14T04:44:08.208Z,27.20
2018-08-14T04:45:08.167Z,27.10
2018-08-14T04:46:08.119Z,26.80
2018-08-14T04:47:08.091Z,30.00
2018-08-14T04:48:08.024Z,27.80
2018-08-14T04:49:07.978Z,28.90
2018-08-14T04:50:07.936Z,27.00
2018-08-14T04:51:07.878Z,28.10
2018-08-14T04:52:07.857Z,26.80
2018-08-14T04:53:07.786Z,30.20
2018-08-14T04:54:07.739Z,28.10
2018-08-14T04:55:07.694Z,28.00
2018-08-14T04:56:07.645Z,30.20
2018-08-14T04:57:07.633Z,29.00
2018-08-14T04:58:07.550Z,31.90
2018-08-14T04:59:07.501Z,31.50
2018-08-14T05:00:07.457Z,31.70
2018-08-14T05:01:07.414Z,33.00
2018-08-14T05:02:07.385Z,37.40
2018-08-14T05:03:07.317Z,39.80
2018-08-14T05:04:07.273Z,38.30
2018-08-14T05:05:07.219Z,37.90
2018-08-14T05:06:07.174Z,42.20
2018-08-14T05:07:07.154Z,36.00
2018-08-14T05:08:07.080Z,41.70
2018-08-14T05:09:07.031Z,39.80
2018-08-14T05:10:06.983Z,37.40
2018-08-14T05:11:06.937Z,39.00
2018-08-14T05:12:06.933Z,40.30
2018-08-14T05:13:06.845Z,40.40
2018-08-14T05:14:06.793Z,39.80
2018-08-14T05:15:06.744Z,44.20
2018-08-14T05:16:06.706Z,43.70
2018-08-14T05:17:06.652Z,39.50
2018-08-14T05:18:06.627Z,38.80
2018-08-14T05:19:06.555Z,39.70
2018-08-14T05:20:06.512Z,42.10
2018-08-14T05:21:06.461Z,43.00
2018-08-14T05:22:06.417Z,43.80
2018-08-14T05:23:06.387Z,43.00
2018-08-14T05:24:06.315Z,38.00
2018-08-14T05:25:06.269Z,39.20
2018-08-14T05:26:06.225Z,44.80
2018-08-14T05:27:06.178Z,42.70
2018-08-14T05:28:06.149Z,41.10
2018-08-14T05:29:06.088Z,45.00
2018-08-14T05:30:06.032Z,50.40
2018-08-14T05:31:05.984Z,43.30
2018-08-14T05:32:05.936Z,43.90
2018-08-14T05:33:05.911Z,44.80
2018-08-14T05:34:05.839Z,45.30
2018-08-14T05:35:05.792Z,50.30
2018-08-14T05:36:05.750Z,50.60
2018-08-14T05:37:05.699Z,45.60
2018-08-14T05:38:05.675Z,41.50
2018-08-14T05:39:05.602Z,46.30
2018-08-14T05:40:05.554Z,46.00
2018-08-14T05:41:05.509Z,43.30
2018-08-14T05:42:05.459Z,44.30
2018-08-14T05:43:05.434Z,46.70
2018-08-14T05:44:05.365Z,45.00
2018-08-14T05:45:05.318Z,46.50
2018-08-14T05:46:05.267Z,51.60
2018-08-14T05:47:05.221Z,50.90
2018-08-14T05:48:05.201Z,46.60
2018-08-14T05:49:05.125Z,45.10
2018-08-14T05:50:05.080Z,45.90
2018-08-14T05:51:05.030Z,51.70
2018-08-14T05:52:04.982Z,48.90
2018-08-14T05:53:05.028Z,55.20
2018-08-14T05:54:04.889Z,48.90
2018-08-14T05:55:04.852Z,56.20
2018-08-14T05:56:04.794Z,55.50
2018-08-14T05:57:04.746Z,49.60
2018-08-14T05:58:04.720Z,51.10
2018-08-14T05:59:04.651Z,55.60
2018-08-14T06:00:04.603Z,53.60
2018-08-14T06:01:04.553Z,52.30
2018-08-14T06:02:04.504Z,53.80
2018-08-14T06:03:04.479Z,50.00
2018-08-14T06:04:04.413Z,53.10
2018-08-14T06:05:04.368Z,49.70
2018-08-14T06:06:04.314Z,54.70
2018-08-14T06:07:04.267Z,56.00
2018-08-14T06:08:04.243Z,52.50
2018-08-14T06:09:04.169Z,55.10
2018-08-14T06:10:04.128Z,50.00
2018-08-14T06:11:04.075Z,51.80
2018-08-14T06:12:04.029Z,56.40
2018-08-14T06:13:04.013Z,55.10
2018-08-14T06:14:03.931Z,47.80
2018-08-14T06:15:03.886Z,50.70
2018-08-14T06:16:03.840Z,48.20
2018-08-14T06:17:03.892Z,53.40
2018-08-14T06:18:03.763Z,49.00
2018-08-14T06:19:03.698Z,53.00
2018-08-14T06:20:03.649Z,53.30
2018-08-14T06:21:03.605Z,53.20
2018-08-14T06:22:03.553Z,55.30
2018-08-14T06:23:03.525Z,58.80
2018-08-14T06:24:03.456Z,57.40
2018-08-14T06:25:03.420Z,55.50
2018-08-14T06:26:03.361Z,58.40
2018-08-14T06:27:03.313Z,60.10
2018-08-14T06:28:03.289Z,56.30
2018-08-14T06:29:03.235Z,56.70
2018-08-14T06:30:03.174Z,57.60
2018-08-14T06:31:03.125Z,56.10
2018-08-14T06:32:03.075Z,60.50
2018-08-14T06:33:03.067Z,57.60
2018-08-14T06:34:02.979Z,58.30
2018-08-14T06:35:02.934Z,60.60
2018-08-14T06:36:02.891Z,60.30
2018-08-14T06:37:02.837Z,59.30
2018-08-14T06:38:02.792Z,57.80
2018-08-14T06:39:02.768Z,55.50
2018-08-14T06:40:02.696Z,54.70
2018-08-14T06:41:02.674Z,56.00
2018-08-14T06:42:02.600Z,56.70
2018-08-14T06:43:02.551Z,51.50
2018-08-14T06:44:02.533Z,52.80
2018-08-14T06:45:02.457Z,52.90
2018-08-14T06:46:02.408Z,47.10
2018-08-14T06:47:02.362Z,44.00
2018-08-14T06:48:02.313Z,45.00
2018-08-14T06:49:02.332Z,46.00
2018-08-14T06:50:02.221Z,48.80
2018-08-14T06:51:02.174Z,46.50
2018-08-14T06:52:02.141Z,46.30
2018-08-14T06:53:02.074Z,41.40
2018-08-14T06:54:02.055Z,43.50
2018-08-14T06:55:01.978Z,42.00
2018-08-14T06:56:01.934Z,41.40
2018-08-14T06:57:01.886Z,39.60
2018-08-14T06:58:01.838Z,44.00
2018-08-14T06:59:01.816Z,41.70
2018-08-14T07:00:01.747Z,42.50
2018-08-14T07:01:01.714Z,42.50
2018-08-14T07:02:01.651Z,38.60
2018-08-14T07:03:01.601Z,42.40
2018-08-14T07:04:01.577Z,39.60
2018-08-14T07:05:01.510Z,41.80
2018-08-14T07:06:01.459Z,39.10
2018-08-14T07:07:01.409Z,38.00
2018-08-14T07:08:01.362Z,37.10
2018-08-14T07:09:01.340Z,41.50
2018-08-14T07:10:01.268Z,40.10
2018-08-14T07:11:01.226Z,35.70
2018-08-14T07:12:01.172Z,41.40
2018-08-14T07:13:01.127Z,39.30
2018-08-14T07:14:01.105Z,40.90
2018-08-14T07:15:01.029Z,42.10
2018-08-14T07:16:00.987Z,38.70
2018-08-14T07:17:00.938Z,40.70
2018-08-14T07:18:00.940Z,43.60
2018-08-14T07:19:00.863Z,38.90
2018-08-14T07:20:00.791Z,42.20
2018-08-14T07:21:00.751Z,42.10
2018-08-14T07:22:00.697Z,38.90
2018-08-14T07:23:00.650Z,40.40
2018-08-14T07:24:00.626Z,41.50
2018-08-14T07:25:00.557Z,38.30
2018-08-14T07:26:00.512Z,42.60
2018-08-14T07:27:00.472Z,38.50
2018-08-14T07:28:00.420Z,40.80
2018-08-14T07:29:00.388Z,40.60
2018-08-14T07:30:00.320Z,38.00
2018-08-14T07:31:00.274Z,40.30
2018-08-14T07:32:00.224Z,39.60
2018-08-14T07:33:00.182Z,39.80
2018-08-14T07:34:00.166Z,37.60
2018-08-14T07:35:00.094Z,37.00
2018-08-14T07:36:00.047Z,37.50
2018-08-14T07:36:59.988Z,34.00
2018-08-14T07:37:59.942Z,38.50
2018-08-14T07:38:59.916Z,35.20
2018-08-14T07:39:59.866Z,34.50
2018-08-14T07:40:59.807Z,33.40
2018-08-14T07:41:59.789Z,29.30
2018-08-14T07:42:59.702Z,27.70
2018-08-14T07:43:59.677Z,29.20
2018-08-14T07:44:59.612Z,30.10
2018-08-14T07:45:59.563Z,27.10
2018-08-14T07:46:59.528Z,28.60
2018-08-14T07:47:59.475Z,28.70
2018-08-14T07:48:59.465Z,26.50
2018-08-14T07:49:59.415Z,24.00
2018-08-14T07:50:59.338Z,26.20
2018-08-14T07:51:59.288Z,24.90
2018-08-14T07:52:59.249Z,25.40
2018-08-14T07:53:59.190Z,22.80
2018-08-14T07:54:59.163Z,24.30
2018-08-14T07:55:59.095Z,22.10
2018-08-14T07:56:59.059Z,23.70
2018-08-14T07:57:59.134Z,21.60
2018-08-14T07:58:58.949Z,22.70
2018-08-14T07:59:58.945Z,21.60
2018-08-14T08:00:58.860Z,18.80
2018-08-14T08:01:58.811Z,20.00
2018-08-14T08:02:58.782Z,19.20
2018-08-14T08:03:58.727Z,18.10
2018-08-14T08:04:58.701Z,18.40
2018-08-14T08:05:58.639Z,18.00
2018-08-14T08:06:58.581Z,18.10
2018-08-14T08:07:58.532Z,18.10
2018-08-14T08:08:58.485Z,17.60
2018-08-14T08:09:58.470Z,15.80
2018-08-14T08:10:58.397Z,17.70
2018-08-14T08:11:58.393Z,16.00
2018-08-14T08:12:58.341Z,16.80
2018-08-14T08:13:58.280Z,15.60
2018-08-14T08:14:58.233Z,17.70
2018-08-14T08:15:58.157Z,16.40
2018-08-14T08:16:58.110Z,15.50
2018-08-14T08:17:58.057Z,15.40
2018-08-14T08:18:58.016Z,15.30
2018-08-14T08:19:57.999Z,14.30
2018-08-14T08:20:57.933Z,13.00
2018-08-14T08:21:57.881Z,13.40
2018-08-14T08:22:57.834Z,12.50
2018-08-14T08:23:57.785Z,13.70
2018-08-14T08:24:57.789Z,12.60
2018-08-14T08:25:57.710Z,13.50
2018-08-14T08:26:57.723Z,13.10
2018-08-14T08:27:57.630Z,12.90
2018-08-14T08:28:57.553Z,13.10
2018-08-14T08:29:57.535Z,10.40
2018-08-14T08:30:57.446Z,10.90
2018-08-14T08:31:57.409Z,10.70
2018-08-14T08:32:57.356Z,10.30
2018-08-14T08:33:57.345Z,11.00
2018-08-14T08:34:57.292Z,10.80
2018-08-14T08:35:57.213Z,9.30
2018-08-14T08:36:57.170Z,9.00
2018-08-14T08:37:57.124Z,10.70
2018-08-14T08:38:57.083Z,9.60
2018-08-14T08:39:57.064Z,10.30
2018-08-14T08:40:56.986Z,10.40
2018-08-14T08:41:56.969Z,9.30
2018-08-14T08:42:56.891Z,8.40
2018-08-14T08:43:56.844Z,9.30
2018-08-14T08:44:56.828Z,9.10
2018-08-14T08:45:56.754Z,9.20
2018-08-14T08:46:56.705Z,10.40
2018-08-14T08:47:56.650Z,10.80
2018-08-14T08:48:56.633Z,10.20
2018-08-14T08:49:56.581Z,10.30
2018-08-14T08:50:56.516Z,11.30
2018-08-14T08:51:56.466Z,9.30
2018-08-14T08:52:56.424Z,9.90
2018-08-14T08:53:56.368Z,9.30
2018-08-14T08:54:56.349Z,9.90
2018-08-14T08:55:56.278Z,9.50
2018-08-14T08:56:56.228Z,10.80
2018-08-14T08:57:56.194Z,9.20
2018-08-14T08:58:56.133Z,8.90
2018-08-14T08:59:56.111Z,6.90
2018-08-14T09:00:56.045Z,7.40
2018-08-14T09:01:55.992Z,8.20
2018-08-14T09:02:55.946Z,7.30
2018-08-14T09:03:55.921Z,6.00
2018-08-14T09:04:55.885Z,6.80
2018-08-14T09:05:55.806Z,6.10
2018-08-14T09:06:55.763Z,5.90
2018-08-14T09:07:55.722Z,6.20
2018-08-14T09:08:55.669Z,4.70
2018-08-14T09:09:55.637Z,5.90
2018-08-14T09:10:55.566Z,5.70
2018-08-14T09:11:55.522Z,5.90
2018-08-14T09:12:55.477Z,4.10
2018-08-14T09:13:55.426Z,5.20
2018-08-14T09:14:55.408Z,4.20
2018-08-14T09:15:55.336Z,5.30
2018-08-14T09:16:55.292Z,5.00
2018-08-14T09:17:55.241Z,4.90
2018-08-14T09:18:55.195Z,4.90
2018-08-14T09:19:55.182Z,4.90
2018-08-14T09:20:55.103Z,4.70
2018-08-14T09:21:55.053Z,5.90
2018-08-14T09:22:55.004Z,4.90
2018-08-14T09:23:54.978Z,4.80
2018-08-14T09:24:54.911Z,5.30
2018-08-14T09:25:54.894Z,4.50
2018-08-14T09:26:54.823Z,4.60
2018-08-14T09:27:54.773Z,5.10
2018-08-14T09:28:54.731Z,4.50
2018-08-14T09:29:54.697Z,3.80
2018-08-14T09:30:54.652Z,4.70
2018-08-14T09:31:54.578Z,6.00
2018-08-14T09:32:54.531Z,5.50
2018-08-14T09:33:54.488Z,4.20
2018-08-14T09:34:54.440Z,3.90
2018-08-14T09:35:54.415Z,6.40
2018-08-14T09:36:54.407Z,4.60
2018-08-14T09:37:54.300Z,5.40
2018-08-14T09:38:54.251Z,4.70
2018-08-14T09:39:54.211Z,6.70
2018-08-14T09:40:54.182Z,5.00
2018-08-14T09:41:54.113Z,4.20
2018-08-14T09:42:54.064Z,3.80
2018-08-14T09:43:54.038Z,6.50
2018-08-14T09:44:53.973Z,4.80
2018-08-14T09:45:53.952Z,4.80
2018-08-14T09:46:53.890Z,4.60
2018-08-14T09:47:53.832Z,5.10
2018-08-14T09:48:53.785Z,4.70
2018-08-14T09:49:53.735Z,3.90
2018-08-14T09:50:53.715Z,5.30
2018-08-14T09:51:53.659Z,3.80
2018-08-14T09:52:53.597Z,5.40
2018-08-14T09:53:53.621Z,4.10
2018-08-14T09:54:53.513Z,5.00
2018-08-14T09:55:53.495Z,4.70
2018-08-14T09:56:53.409Z,5.10
2018-08-14T09:57:53.378Z,3.80
2018-08-14T09:58:53.343Z,4.20
2018-08-14T09:59:53.273Z,4.80
2018-08-14T10:00:53.261Z,4.80
2018-08-14T10:01:53.178Z,4.40
2018-08-14T10:02:53.133Z,4.20
2018-08-14T10:03:53.086Z,5.40
2018-08-14T10:04:53.084Z,4.40
2018-08-14T10:05:53.024Z,3.50
2018-08-14T10:06:52.946Z,4.80
2018-08-14T10:07:52.910Z,3.90
2018-08-14T10:08:52.935Z,4.90
2018-08-14T10:09:52.815Z,4.40
2018-08-14T10:10:52.795Z,4.50
2018-08-14T10:11:52.715Z,5.50
2018-08-14T10:12:52.669Z,5.50
2018-08-14T10:13:52.622Z,5.30
2018-08-14T10:14:52.580Z,4.60
2018-08-14T10:15:52.567Z,3.60
2018-08-14T10:16:52.487Z,3.80
2018-08-14T10:17:52.442Z,3.10
2018-08-14T10:18:52.394Z,3.30
2018-08-14T10:19:52.366Z,3.40
2018-08-14T10:20:52.388Z,3.80
2018-08-14T10:21:52.254Z,3.40
2018-08-14T10:22:52.205Z,4.10
2018-08-14T10:23:52.160Z,3.70
2018-08-14T10:24:52.131Z,3.10
2018-08-14T10:25:52.091Z,3.80
2018-08-14T10:26:52.137Z,3.40
2018-08-14T10:27:51.974Z,2.90
2018-08-14T10:28:51.992Z,4.20
2018-08-14T10:29:51.884Z,3.20
2018-08-14T10:30:51.886Z,3.20
2018-08-14T10:31:51.795Z,3.90
2018-08-14T10:32:51.748Z,3.80
2018-08-14T10:33:51.702Z,3.80
2018-08-14T10:34:51.654Z,3.10
2018-08-14T10:35:51.612Z,4.70
2018-08-14T10:36:51.589Z,3.90
2018-08-14T10:37:51.516Z,3.50
2018-08-14T10:38:51.476Z,3.60
2018-08-14T10:39:51.439Z,4.10
2018-08-14T10:40:51.374Z,3.70
2018-08-14T10:41:51.355Z,4.50
2018-08-14T10:42:51.284Z,3.00
2018-08-14T10:43:51.239Z,5.40
2018-08-14T10:44:51.190Z,3.90
2018-08-14T10:45:51.144Z,3.80
2018-08-14T10:46:51.132Z,2.90
2018-08-14T10:47:51.057Z,4.40
2018-08-14T10:48:51.005Z,4.90
2018-08-14T10:49:50.958Z,5.10
2018-08-14T10:50:50.911Z,3.60
2018-08-14T10:51:50.889Z,3.80
2018-08-14T10:52:50.824Z,3.80
2018-08-14T10:53:50.776Z,2.90
2018-08-14T10:54:50.729Z,4.20
2018-08-14T10:55:50.688Z,3.50
2018-08-14T10:56:50.667Z,3.00
2018-08-14T10:57:50.588Z,4.40
2018-08-14T10:58:50.626Z,3.80
2018-08-14T10:59:50.500Z,4.30
2018-08-14T11:00:50.456Z,4.30
2018-08-14T11:01:50.432Z,3.90
2018-08-14T11:02:50.368Z,5.60
2018-08-14T11:03:50.317Z,2.80
2018-08-14T11:04:50.330Z,3.80
2018-08-14T11:05:50.220Z,2.70
2018-08-14T11:06:50.238Z,4.40
2018-08-14T11:07:50.128Z,3.30
2018-08-14T11:08:50.086Z,3.80
2018-08-14T11:09:50.036Z,4.60
2018-08-14T11:10:50.066Z,3.50
2018-08-14T11:11:49.976Z,4.00
2018-08-14T11:12:49.902Z,3.10
2018-08-14T11:13:49.850Z,3.60
2018-08-14T11:14:49.805Z,3.80
2018-08-14T11:15:49.759Z,3.30
2018-08-14T11:16:49.737Z,2.70
2018-08-14T11:17:49.666Z,3.40
2018-08-14T11:18:49.628Z,3.80
2018-08-14T11:19:49.572Z,3.60
2018-08-14T11:20:49.529Z,5.20
2018-08-14T11:21:49.503Z,4.30
2018-08-14T11:22:49.429Z,4.80
2018-08-14T11:23:49.388Z,6.00
2018-08-14T11:24:49.372Z,3.30
2018-08-14T11:25:49.295Z,4.90
2018-08-14T11:26:49.270Z,3.00
2018-08-14T11:27:49.197Z,3.70
2018-08-14T11:28:49.158Z,2.80
2018-08-14T11:29:49.107Z,4.30
2018-08-14T11:30:49.059Z,2.50
2018-08-14T11:31:49.035Z,2.20
2018-08-14T11:32:48.969Z,2.90
2018-08-14T11:33:51.181Z,3.40
2018-08-14T11:34:48.870Z,4.30
2018-08-14T11:35:49.157Z,2.50
2018-08-14T11:36:50.176Z,3.40
2018-08-14T11:37:48.811Z,4.20
2018-08-14T11:38:48.687Z,4.10
2018-08-14T11:39:48.700Z,4.40
2018-08-14T11:40:48.595Z,5.00
2018-08-14T11:41:48.569Z,4.30
2018-08-14T11:42:48.497Z,4.30
2018-08-14T11:43:48.449Z,4.80
2018-08-14T11:44:48.409Z,4.50
2018-08-14T11:45:48.360Z,6.00
2018-08-14T11:46:48.311Z,6.30
2018-08-14T11:47:48.288Z,7.00
2018-08-14T11:48:48.216Z,5.00
2018-08-14T11:49:48.165Z,4.10
2018-08-14T11:50:48.154Z,5.30
2018-08-14T11:51:48.075Z,4.20
2018-08-14T11:52:48.050Z,4.80
2018-08-14T11:53:47.978Z,5.80
2018-08-14T11:54:47.937Z,6.10
2018-08-14T11:55:47.898Z,3.80
2018-08-14T11:56:47.877Z,4.20
2018-08-14T11:57:47.812Z,5.80
2018-08-14T11:58:47.742Z,3.50
2018-08-14T11:59:47.694Z,5.40
2018-08-14T12:00:47.651Z,4.60
2018-08-14T12:01:47.598Z,3.80
2018-08-14T12:02:47.575Z,4.90
2018-08-14T12:03:47.505Z,4.00
2018-08-14T12:04:47.456Z,4.30
2018-08-14T12:05:47.413Z,4.70
2018-08-14T12:06:47.385Z,4.90
2018-08-14T12:07:47.355Z,4.00
2018-08-14T12:08:47.271Z,2.90
2018-08-14T12:09:47.225Z,4.40
2018-08-14T12:10:47.237Z,4.00
2018-08-14T12:11:47.130Z,3.80
2018-08-14T12:12:47.120Z,5.50
2018-08-14T12:13:47.034Z,4.30
2018-08-14T12:14:46.992Z,3.70
2018-08-14T12:15:46.940Z,3.80
2018-08-14T12:16:46.913Z,3.60
2018-08-14T12:17:46.873Z,3.20
2018-08-14T12:18:46.799Z,4.70
2018-08-14T12:19:46.780Z,3.90
2018-08-14T12:20:46.707Z,3.90
2018-08-14T12:21:46.657Z,3.50
2018-08-14T12:22:46.652Z,2.50
2018-08-14T12:23:46.575Z,5.10
2018-08-14T12:24:46.526Z,3.40
2018-08-14T12:25:46.485Z,5.30
2018-08-14T12:26:46.428Z,3.70
2018-08-14T12:27:46.419Z,3.30
2018-08-14T12:28:46.337Z,3.70
2018-08-14T12:29:46.282Z,4.20
2018-08-14T12:30:46.239Z,3.70
2018-08-14T12:31:46.187Z,3.70
2018-08-14T12:32:46.190Z,3.30
2018-08-14T12:33:46.092Z,2.60
2018-08-14T12:34:46.051Z,3.70
2018-08-14T12:35:45.999Z,3.80
2018-08-14T12:36:45.957Z,3.90
2018-08-14T12:37:45.924Z,4.00
2018-08-14T12:38:45.865Z,3.60
2018-08-14T12:39:45.812Z,3.70
2018-08-14T12:40:45.761Z,2.00
2018-08-14T12:41:45.715Z,4.30
2018-08-14T12:42:45.737Z,4.10
2018-08-14T12:43:45.623Z,3.80
2018-08-14T12:44:45.579Z,2.80
2018-08-14T12:45:45.535Z,3.40
2018-08-14T12:46:45.479Z,3.10
2018-08-14T12:47:45.462Z,3.70
2018-08-14T12:48:45.391Z,3.80
2018-08-14T12:49:45.341Z,3.10
2018-08-14T12:50:45.290Z,3.40
2018-08-14T12:51:45.243Z,4.30
2018-08-14T12:52:45.216Z,3.80
2018-08-14T12:53:45.149Z,4.40
2018-08-14T12:54:45.102Z,3.40
2018-08-14T12:55:45.103Z,3.20
2018-08-14T12:56:45.009Z,2.30
2018-08-14T12:57:44.984Z,1.60
2018-08-14T12:58:44.917Z,4.20
2018-08-14T12:59:44.870Z,2.90
2018-08-14T13:00:44.831Z,4.30
2018-08-14T13:01:44.784Z,4.80